sensor_id;sensor_type;location;lat;lon;timestamp;pressure;altitude;pressure_sealevel;temperature;humidity
62548;BME280;48602;45.192;5.722;2023-02-11T00:01:10;101324.25;;;2.54;57.83
62548;BME280;48602;45.192;5.722;2023-02-11T00:03:36;101326.81;;;2.51;57.99
62548;BME280;48602;45.192;5.722;2023-02-11T00:06:05;101322.38;;;2.49;58.19
62548;BME280;48602;45.192;5.722;2023-02-11T00:08:33;101324.06;;;2.47;58.20
62548;BME280;48602;45.192;5.722;2023-02-11T00:10:59;101323.97;;;2.43;58.22
62548;BME280;48602;45.192;5.722;2023-02-11T00:13:25;101327.38;;;2.41;58.66
62548;BME280;48602;45.192;5.722;2023-02-11T00:15:50;101319.47;;;2.38;58.64
62548;BME280;48602;45.192;5.722;2023-02-11T00:18:16;101329.88;;;2.38;59.28
62548;BME280;48602;45.192;5.722;2023-02-11T00:20:41;101326.34;;;2.36;59.57
62548;BME280;48602;45.192;5.722;2023-02-11T00:23:07;101333.16;;;2.31;59.94
62548;BME280;48602;45.192;5.722;2023-02-11T00:25:37;101330.41;;;2.26;59.84
62548;BME280;48602;45.192;5.722;2023-02-11T00:28:02;101324.28;;;2.24;60.10
62548;BME280;48602;45.192;5.722;2023-02-11T00:30:28;101325.91;;;2.21;60.42
62548;BME280;48602;45.192;5.722;2023-02-11T00:32:53;101335.38;;;2.19;60.50
62548;BME280;48602;45.192;5.722;2023-02-11T00:35:19;101339.69;;;2.17;60.47
62548;BME280;48602;45.192;5.722;2023-02-11T00:37:44;101336.09;;;2.13;60.33
62548;BME280;48602;45.192;5.722;2023-02-11T00:40:10;101330.81;;;2.10;60.73
62548;BME280;48602;45.192;5.722;2023-02-11T00:42:35;101328.13;;;2.07;60.62
62548;BME280;48602;45.192;5.722;2023-02-11T00:45:02;101328.03;;;2.04;60.95
62548;BME280;48602;45.192;5.722;2023-02-11T00:47:27;101327.97;;;2.02;60.88
62548;BME280;48602;45.192;5.722;2023-02-11T00:49:53;101325.25;;;1.98;61.11
62548;BME280;48602;45.192;5.722;2023-02-11T00:52:18;101329.47;;;1.94;61.06
62548;BME280;48602;45.192;5.722;2023-02-11T00:54:44;101321.53;;;1.90;61.40
62548;BME280;48602;45.192;5.722;2023-02-11T00:57:09;101329.28;;;1.88;61.26
62548;BME280;48602;45.192;5.722;2023-02-11T00:59:35;101330.06;;;1.86;61.40
62548;BME280;48602;45.192;5.722;2023-02-11T01:02:00;101321.38;;;1.84;61.47
62548;BME280;48602;45.192;5.722;2023-02-11T01:04:26;101323.91;;;1.82;61.64
62548;BME280;48602;45.192;5.722;2023-02-11T01:06:51;101312.63;;;1.82;61.60
62548;BME280;48602;45.192;5.722;2023-02-11T01:09:17;101307.31;;;1.79;61.64
62548;BME280;48602;45.192;5.722;2023-02-11T01:11:42;101308.94;;;1.75;61.60
62548;BME280;48602;45.192;5.722;2023-02-11T01:14:08;101315.81;;;1.73;61.85
62548;BME280;48602;45.192;5.722;2023-02-11T01:16:33;101311.44;;;1.72;61.94
62548;BME280;48602;45.192;5.722;2023-02-11T01:18:59;101311.41;;;1.70;61.69
62548;BME280;48602;45.192;5.722;2023-02-11T01:21:24;101310.47;;;1.68;61.85
62548;BME280;48602;45.192;5.722;2023-02-11T01:23:50;101319.16;;;1.69;62.12
62548;BME280;48602;45.192;5.722;2023-02-11T01:26:16;101310.44;;;1.67;61.84
62548;BME280;48602;45.192;5.722;2023-02-11T01:28:41;101313.06;;;1.67;61.75
62548;BME280;48602;45.192;5.722;2023-02-11T01:31:07;101306.09;;;1.66;62.01
62548;BME280;48602;45.192;5.722;2023-02-11T01:33:32;101300.00;;;1.65;61.93
62548;BME280;48602;45.192;5.722;2023-02-11T01:36:02;101314.75;;;1.66;61.92
62548;BME280;48602;45.192;5.722;2023-02-11T01:38:29;101313.00;;;1.65;62.23
62548;BME280;48602;45.192;5.722;2023-02-11T01:41:06;101306.03;;;1.64;61.78
62548;BME280;48602;45.192;5.722;2023-02-11T01:43:35;101310.41;;;1.65;62.16
62548;BME280;48602;45.192;5.722;2023-02-11T01:48:35;101305.97;;;1.63;62.18
62548;BME280;48602;45.192;5.722;2023-02-11T01:51:12;101302.44;;;1.61;62.29
62548;BME280;48602;45.192;5.722;2023-02-11T01:53:39;101305.00;;;1.59;62.45
62548;BME280;48602;45.192;5.722;2023-02-11T01:56:26;101302.28;;;1.56;62.53
62548;BME280;48602;45.192;5.722;2023-02-11T01:59:17;101293.50;;;1.53;62.42
62548;BME280;48602;45.192;5.722;2023-02-11T02:01:49;101296.03;;;1.50;62.64
62548;BME280;48602;45.192;5.722;2023-02-11T02:04:17;101290.75;;;1.47;62.50
62548;BME280;48602;45.192;5.722;2023-02-11T02:06:49;101290.69;;;1.45;62.91
62548;BME280;48602;45.192;5.722;2023-02-11T02:09:22;101286.28;;;1.43;62.99
62548;BME280;48602;45.192;5.722;2023-02-11T02:11:49;101286.22;;;1.41;62.89
62548;BME280;48602;45.192;5.722;2023-02-11T02:14:14;101278.38;;;1.39;63.13
62548;BME280;48602;45.192;5.722;2023-02-11T02:16:40;101280.03;;;1.37;63.03
62548;BME280;48602;45.192;5.722;2023-02-11T02:22:11;101275.56;;;1.32;63.55
62548;BME280;48602;45.192;5.722;2023-02-11T02:25:04;101272.81;;;1.27;63.40
62548;BME280;48602;45.192;5.722;2023-02-11T02:27:51;101274.41;;;1.24;63.56
62548;BME280;48602;45.192;5.722;2023-02-11T02:38:13;101269.00;;;1.18;64.16
62548;BME280;48602;45.192;5.722;2023-02-11T02:41:18;101262.09;;;1.17;64.05
62548;BME280;48602;45.192;5.722;2023-02-11T02:43:47;101267.28;;;1.17;64.16
62548;BME280;48602;45.192;5.722;2023-02-11T02:48:41;101271.59;;;1.16;64.04
62548;BME280;48602;45.192;5.722;2023-02-11T02:59:36;101269.00;;;1.18;64.40
62548;BME280;48602;45.192;5.722;2023-02-11T03:02:32;101257.78;;;1.17;64.31
62548;BME280;48602;45.192;5.722;2023-02-11T03:05:09;101249.09;;;1.17;64.29
62548;BME280;48602;45.192;5.722;2023-02-11T03:07:50;101250.81;;;1.16;64.29
62548;BME280;48602;45.192;5.722;2023-02-11T03:10:30;101249.03;;;1.15;63.98
62548;BME280;48602;45.192;5.722;2023-02-11T03:12:56;101244.72;;;1.16;64.29
62548;BME280;48602;45.192;5.722;2023-02-11T03:15:24;101236.94;;;1.16;64.11
62548;BME280;48602;45.192;5.722;2023-02-11T03:17:53;101240.38;;;1.15;64.35
62548;BME280;48602;45.192;5.722;2023-02-11T03:20:21;101236.94;;;1.16;64.53
62548;BME280;48602;45.192;5.722;2023-02-11T03:22:53;101235.22;;;1.16;64.46
62548;BME280;48602;45.192;5.722;2023-02-11T03:25:27;101240.41;;;1.16;64.37
62548;BME280;48602;45.192;5.722;2023-02-11T03:30:37;101231.75;;;1.16;64.63
62548;BME280;48602;45.192;5.722;2023-02-11T03:33:13;101231.78;;;1.17;64.34
62548;BME280;48602;45.192;5.722;2023-02-11T03:35:49;101223.13;;;1.17;64.68
62548;BME280;48602;45.192;5.722;2023-02-11T03:38:38;101233.47;;;1.15;64.54
62548;BME280;48602;45.192;5.722;2023-02-11T03:41:08;101234.25;;;1.13;64.52
62548;BME280;48602;45.192;5.722;2023-02-11T03:43:46;101236.78;;;1.11;64.54
62548;BME280;48602;45.192;5.722;2023-02-11T03:46:17;101233.25;;;1.09;65.16
62548;BME280;48602;45.192;5.722;2023-02-11T03:48:50;101228.84;;;1.07;64.85
62548;BME280;48602;45.192;5.722;2023-02-11T03:51:18;101233.16;;;1.06;64.84
62548;BME280;48602;45.192;5.722;2023-02-11T03:53:45;101246.91;;;1.03;64.87
62548;BME280;48602;45.192;5.722;2023-02-11T03:56:16;101234.69;;;1.01;64.91
62548;BME280;48602;45.192;5.722;2023-02-11T03:58:45;101232.03;;;0.98;65.31
62548;BME280;48602;45.192;5.722;2023-02-11T04:01:10;101239.78;;;0.96;65.07
62548;BME280;48602;45.192;5.722;2023-02-11T04:03:36;101237.13;;;0.95;65.52
62548;BME280;48602;45.192;5.722;2023-02-11T04:06:01;101235.31;;;0.92;65.27
62548;BME280;48602;45.192;5.722;2023-02-11T04:08:26;101235.19;;;0.89;65.48
62548;BME280;48602;45.192;5.722;2023-02-11T04:10:52;101235.16;;;0.88;65.87
62548;BME280;48602;45.192;5.722;2023-02-11T04:13:17;101230.72;;;0.85;65.99
62548;BME280;48602;45.192;5.722;2023-02-11T04:15:43;101226.28;;;0.81;65.45
62548;BME280;48602;45.192;5.722;2023-02-11T04:18:08;101227.03;;;0.77;65.77
62548;BME280;48602;45.192;5.722;2023-02-11T04:20:34;101232.94;;;0.73;66.07
62548;BME280;48602;45.192;5.722;2023-02-11T04:22:59;101230.16;;;0.68;66.14
62548;BME280;48602;45.192;5.722;2023-02-11T04:25:24;101230.03;;;0.64;66.33
62548;BME280;48602;45.192;5.722;2023-02-11T04:27:50;101227.34;;;0.61;66.08
62548;BME280;48602;45.192;5.722;2023-02-11T04:30:16;101234.19;;;0.59;66.17
62548;BME280;48602;45.192;5.722;2023-02-11T04:32:41;101232.31;;;0.55;66.72
62548;BME280;48602;45.192;5.722;2023-02-11T04:35:07;101223.59;;;0.53;66.82
62548;BME280;48602;45.192;5.722;2023-02-11T04:37:32;101226.09;;;0.50;66.66
62548;BME280;48602;45.192;5.722;2023-02-11T04:39:58;101220.84;;;0.48;66.36
62548;BME280;48602;45.192;5.722;2023-02-11T04:42:23;101225.22;;;0.49;66.75
62548;BME280;48602;45.192;5.722;2023-02-11T04:44:49;101222.63;;;0.49;66.72
62548;BME280;48602;45.192;5.722;2023-02-11T04:47:14;101224.28;;;0.47;66.78
62548;BME280;48602;45.192;5.722;2023-02-11T04:49:40;101212.97;;;0.45;66.97
62548;BME280;48602;45.192;5.722;2023-02-11T04:52:06;101221.53;;;0.43;66.98
62548;BME280;48602;45.192;5.722;2023-02-11T04:54:32;101223.19;;;0.41;67.18
62548;BME280;48602;45.192;5.722;2023-02-11T04:56:57;101217.88;;;0.38;67.00
62548;BME280;48602;45.192;5.722;2023-02-11T04:59:23;101220.47;;;0.38;66.97
62548;BME280;48602;45.192;5.722;2023-02-11T05:01:49;101224.72;;;0.35;67.10
62548;BME280;48602;45.192;5.722;2023-02-11T05:04:15;101220.41;;;0.36;67.41
62548;BME280;48602;45.192;5.722;2023-02-11T05:06:40;101225.59;;;0.36;67.29
62548;BME280;48602;45.192;5.722;2023-02-11T05:09:06;101226.44;;;0.35;67.33
62548;BME280;48602;45.192;5.722;2023-02-11T05:11:32;101220.34;;;0.33;67.24
62548;BME280;48602;45.192;5.722;2023-02-11T05:13:58;101216.81;;;0.31;67.51
62548;BME280;48602;45.192;5.722;2023-02-11T05:16:23;101218.50;;;0.30;67.43
62548;BME280;48602;45.192;5.722;2023-02-11T05:18:49;101209.78;;;0.28;67.39
62548;BME280;48602;45.192;5.722;2023-02-11T05:21:17;101214.97;;;0.28;67.58
62548;BME280;48602;45.192;5.722;2023-02-11T05:23:43;101216.69;;;0.28;67.62
62548;BME280;48602;45.192;5.722;2023-02-11T05:26:09;101214.97;;;0.28;67.70
62548;BME280;48602;45.192;5.722;2023-02-11T05:28:34;101215.91;;;0.30;67.46
62548;BME280;48602;45.192;5.722;2023-02-11T05:31:00;101217.69;;;0.31;67.63
62548;BME280;48602;45.192;5.722;2023-02-11T05:33:26;101217.69;;;0.31;67.81
62548;BME280;48602;45.192;5.722;2023-02-11T05:35:51;101219.44;;;0.32;67.69
62548;BME280;48602;45.192;5.722;2023-02-11T05:38:17;101220.34;;;0.34;67.73
62548;BME280;48602;45.192;5.722;2023-02-11T05:40:43;101224.63;;;0.32;67.98
62548;BME280;48602;45.192;5.722;2023-02-11T05:43:08;101232.44;;;0.34;67.85
62548;BME280;48602;45.192;5.722;2023-02-11T05:45:34;101231.53;;;0.32;67.99
62548;BME280;48602;45.192;5.722;2023-02-11T05:47:59;101228.13;;;0.33;68.23
62548;BME280;48602;45.192;5.722;2023-02-11T05:50:25;101231.53;;;0.32;67.79
62548;BME280;48602;45.192;5.722;2023-02-11T05:52:50;101230.59;;;0.30;67.94
62548;BME280;48602;45.192;5.722;2023-02-11T05:55:16;101228.88;;;0.30;68.09
62548;BME280;48602;45.192;5.722;2023-02-11T05:57:41;101222.00;;;0.31;67.71
62548;BME280;48602;45.192;5.722;2023-02-11T06:00:08;101222.94;;;0.33;67.93
62548;BME280;48602;45.192;5.722;2023-02-11T06:02:33;101219.44;;;0.32;67.94
62548;BME280;48602;45.192;5.722;2023-02-11T06:04:59;101222.06;;;0.34;68.06
62548;BME280;48602;45.192;5.722;2023-02-11T06:07:24;101227.25;;;0.32;67.84
62548;BME280;48602;45.192;5.722;2023-02-11T06:09:50;101218.56;;;0.32;67.92
62548;BME280;48602;45.192;5.722;2023-02-11T06:12:15;101227.19;;;0.31;68.26
62548;BME280;48602;45.192;5.722;2023-02-11T06:14:41;101222.81;;;0.30;67.99
62548;BME280;48602;45.192;5.722;2023-02-11T06:17:06;101213.28;;;0.29;67.96
62548;BME280;48602;45.192;5.722;2023-02-11T06:19:32;101215.81;;;0.27;67.90
62548;BME280;48602;45.192;5.722;2023-02-11T06:21:57;101227.00;;;0.26;67.85
62548;BME280;48602;45.192;5.722;2023-02-11T06:24:23;101226.06;;;0.24;67.79
62548;BME280;48602;45.192;5.722;2023-02-11T06:26:49;101225.13;;;0.22;67.62
62548;BME280;48602;45.192;5.722;2023-02-11T06:29:14;101220.78;;;0.21;67.84
62548;BME280;48602;45.192;5.722;2023-02-11T06:31:40;101215.59;;;0.21;67.66
62548;BME280;48602;45.192;5.722;2023-02-11T06:34:06;101218.19;;;0.21;67.68
62548;BME280;48602;45.192;5.722;2023-02-11T06:36:32;101215.63;;;0.23;67.89
62548;BME280;48602;45.192;5.722;2023-02-11T06:38:58;101215.75;;;0.26;68.02
62548;BME280;48602;45.192;5.722;2023-02-11T06:41:23;101208.03;;;0.27;67.40
62548;BME280;48602;45.192;5.722;2023-02-11T06:43:49;101214.16;;;0.29;67.61
62548;BME280;48602;45.192;5.722;2023-02-11T06:46:14;101205.53;;;0.30;67.67
62548;BME280;48602;45.192;5.722;2023-02-11T06:48:40;101207.38;;;0.33;67.77
62548;BME280;48602;45.192;5.722;2023-02-11T06:51:07;101206.47;;;0.32;67.61
62548;BME280;48602;45.192;5.722;2023-02-11T06:53:36;101211.75;;;0.35;67.78
62548;BME280;48602;45.192;5.722;2023-02-11T06:56:06;101212.63;;;0.36;67.69
62548;BME280;48602;45.192;5.722;2023-02-11T06:58:33;101211.81;;;0.37;67.63
62548;BME280;48602;45.192;5.722;2023-02-11T07:00:59;101218.66;;;0.35;67.55
62548;BME280;48602;45.192;5.722;2023-02-11T07:03:25;101217.69;;;0.31;67.48
62548;BME280;48602;45.192;5.722;2023-02-11T07:05:50;101214.22;;;0.31;67.68
62548;BME280;48602;45.192;5.722;2023-02-11T07:08:16;101219.41;;;0.31;67.88
62548;BME280;48602;45.192;5.722;2023-02-11T07:10:41;101220.22;;;0.30;67.92
62548;BME280;48602;45.192;5.722;2023-02-11T07:13:10;101228.84;;;0.29;67.68
62548;BME280;48602;45.192;5.722;2023-02-11T07:15:36;101226.25;;;0.29;67.71
62548;BME280;48602;45.192;5.722;2023-02-11T07:18:01;101225.34;;;0.28;67.88
62548;BME280;48602;45.192;5.722;2023-02-11T07:20:27;101228.84;;;0.29;67.92
62548;BME280;48602;45.192;5.722;2023-02-11T07:22:52;101234.06;;;0.30;68.02
62548;BME280;48602;45.192;5.722;2023-02-11T07:25:18;101237.63;;;0.32;68.07
62548;BME280;48602;45.192;5.722;2023-02-11T07:27:44;101240.22;;;0.32;67.97
62548;BME280;48602;45.192;5.722;2023-02-11T07:30:10;101242.00;;;0.35;68.03
62548;BME280;48602;45.192;5.722;2023-02-11T07:32:35;101239.47;;;0.37;68.17
62548;BME280;48602;45.192;5.722;2023-02-11T07:35:01;101247.31;;;0.38;68.04
62548;BME280;48602;45.192;5.722;2023-02-11T07:37:26;101243.88;;;0.39;68.17
62548;BME280;48602;45.192;5.722;2023-02-11T07:39:52;101251.72;;;0.41;68.22
62548;BME280;48602;45.192;5.722;2023-02-11T07:42:18;101252.59;;;0.41;68.20
62548;BME280;48602;45.192;5.722;2023-02-11T07:44:45;101262.22;;;0.44;68.29
62548;BME280;48602;45.192;5.722;2023-02-11T07:47:11;101263.19;;;0.47;68.05
62548;BME280;48602;45.192;5.722;2023-02-11T07:49:36;101261.56;;;0.51;67.97
62548;BME280;48602;45.192;5.722;2023-02-11T07:52:01;101267.75;;;0.54;68.30
62548;BME280;48602;45.192;5.722;2023-02-11T07:54:27;101273.00;;;0.56;68.16
62548;BME280;48602;45.192;5.722;2023-02-11T07:56:59;101270.56;;;0.60;67.79
62548;BME280;48602;45.192;5.722;2023-02-11T07:59:38;101268.09;;;0.63;67.80
62548;BME280;48602;45.192;5.722;2023-02-11T08:02:03;101272.53;;;0.67;67.93
62548;BME280;48602;45.192;5.722;2023-02-11T08:04:29;101273.59;;;0.73;67.99
62548;BME280;48602;45.192;5.722;2023-02-11T08:06:54;101290.25;;;0.79;67.69
62548;BME280;48602;45.192;5.722;2023-02-11T08:09:21;101286.06;;;0.83;67.42
62548;BME280;48602;45.192;5.722;2023-02-11T08:11:46;101282.72;;;0.87;67.18
62548;BME280;48602;45.192;5.722;2023-02-11T08:14:12;101280.22;;;0.90;67.25
62548;BME280;48602;45.192;5.722;2023-02-11T08:16:38;101279.50;;;0.94;67.01
62548;BME280;48602;45.192;5.722;2023-02-11T08:19:07;101275.25;;;0.96;66.99
62548;BME280;48602;45.192;5.722;2023-02-11T08:21:32;101282.31;;;1.00;66.76
62548;BME280;48602;45.192;5.722;2023-02-11T08:24:01;101283.19;;;1.00;66.82
62548;BME280;48602;45.192;5.722;2023-02-11T08:26:29;101286.75;;;1.04;66.98
62548;BME280;48602;45.192;5.722;2023-02-11T08:28:57;101297.31;;;1.09;66.67
62548;BME280;48602;45.192;5.722;2023-02-11T08:31:25;101281.00;;;1.13;66.44
62548;BME280;48602;45.192;5.722;2023-02-11T08:33:52;101287.25;;;1.19;66.57
62548;BME280;48602;45.192;5.722;2023-02-11T08:36:23;101288.28;;;1.24;66.15
62548;BME280;48602;45.192;5.722;2023-02-11T08:38:49;101291.09;;;1.30;66.66
62548;BME280;48602;45.192;5.722;2023-02-11T08:41:15;101290.50;;;1.39;66.04
62548;BME280;48602;45.192;5.722;2023-02-11T08:43:42;101292.47;;;1.46;65.87
62548;BME280;48602;45.192;5.722;2023-02-11T08:46:11;101293.50;;;1.53;65.52
62548;BME280;48602;45.192;5.722;2023-02-11T08:48:37;101290.28;;;1.60;65.56
62548;BME280;48602;45.192;5.722;2023-02-11T08:51:07;101285.34;;;1.67;65.27
62548;BME280;48602;45.192;5.722;2023-02-11T08:53:35;101290.75;;;1.75;65.23
62548;BME280;48602;45.192;5.722;2023-02-11T08:56:00;101284.84;;;1.81;64.72
62548;BME280;48602;45.192;5.722;2023-02-11T08:58:26;101294.72;;;1.92;64.79
62548;BME280;48602;45.192;5.722;2023-02-11T09:00:51;101291.84;;;2.12;64.54
62548;BME280;48602;45.192;5.722;2023-02-11T09:03:17;101298.25;;;2.24;64.02
62548;BME280;48602;45.192;5.722;2023-02-11T09:05:44;101289.13;;;2.38;64.02
62548;BME280;48602;45.192;5.722;2023-02-11T09:08:10;101282.50;;;2.50;63.88
62548;BME280;48602;45.192;5.722;2023-02-11T09:10:35;101299.16;;;2.56;63.57
62548;BME280;48602;45.192;5.722;2023-02-11T09:13:01;101289.84;;;2.64;63.52
62548;BME280;48602;45.192;5.722;2023-02-11T09:15:26;101294.31;;;2.70;63.29
62548;BME280;48602;45.192;5.722;2023-02-11T09:17:51;101290.09;;;2.75;62.68
62548;BME280;48602;45.192;5.722;2023-02-11T09:20:17;101298.09;;;2.81;62.91
62548;BME280;48602;45.192;5.722;2023-02-11T09:22:43;101296.47;;;2.85;62.49
62548;BME280;48602;45.192;5.722;2023-02-11T09:25:10;101299.13;;;2.88;62.10
62548;BME280;48602;45.192;5.722;2023-02-11T09:27:35;101292.25;;;2.91;62.23
62548;BME280;48602;45.192;5.722;2023-02-11T09:30:00;101289.78;;;2.96;62.30
62548;BME280;48602;45.192;5.722;2023-02-11T09:32:26;101281.16;;;2.98;61.83
62548;BME280;48602;45.192;5.722;2023-02-11T09:34:51;101274.25;;;2.99;61.83
62548;BME280;48602;45.192;5.722;2023-02-11T09:37:17;101280.28;;;2.98;61.70
62548;BME280;48602;45.192;5.722;2023-02-11T09:39:42;101270.72;;;2.97;61.79
62548;BME280;48602;45.192;5.722;2023-02-11T09:45:13;101270.94;;;3.06;61.70
62548;BME280;48602;45.192;5.722;2023-02-11T09:48:01;101275.50;;;3.14;61.62
62548;BME280;48602;45.192;5.722;2023-02-11T09:50:32;101272.19;;;3.22;61.12
62548;BME280;48602;45.192;5.722;2023-02-11T09:53:22;101276.88;;;3.35;61.42
62548;BME280;48602;45.192;5.722;2023-02-11T09:55:51;101264.03;;;3.44;60.81
62548;BME280;48602;45.192;5.722;2023-02-11T09:58:32;101265.06;;;3.52;60.56
62548;BME280;48602;45.192;5.722;2023-02-11T10:19:00;101254.56;;;4.30;57.77
62548;BME280;48602;45.192;5.722;2023-02-11T10:24:31;101256.72;;;4.51;56.72
62548;BME280;48602;45.192;5.722;2023-02-11T10:26:58;101260.38;;;4.62;56.65
62548;BME280;48602;45.192;5.722;2023-02-11T10:29:39;101255.34;;;4.73;56.43
62548;BME280;48602;45.192;5.722;2023-02-11T10:32:22;101249.41;;;4.81;55.71
62548;BME280;48602;45.192;5.722;2023-02-11T10:34:52;101260.88;;;4.89;55.13
62548;BME280;48602;45.192;5.722;2023-02-11T10:37:19;101264.47;;;4.96;55.41
62548;BME280;48602;45.192;5.722;2023-02-11T10:39:44;101260.25;;;5.04;55.29
62548;BME280;48602;45.192;5.722;2023-02-11T10:42:11;101260.38;;;5.12;55.28
62548;BME280;48602;45.192;5.722;2023-02-11T10:44:41;101257.91;;;5.21;54.52
62548;BME280;48602;45.192;5.722;2023-02-11T10:47:34;101260.66;;;5.29;54.40
62548;BME280;48602;45.192;5.722;2023-02-11T10:50:21;101256.41;;;5.37;54.44
62548;BME280;48602;45.192;5.722;2023-02-11T10:52:47;101250.38;;;5.41;53.81
62548;BME280;48602;45.192;5.722;2023-02-11T10:58:02;101244.34;;;5.46;53.73
62548;BME280;48602;45.192;5.722;2023-02-11T11:03:03;101236.63;;;5.55;53.42
62548;BME280;48602;45.192;5.722;2023-02-11T11:05:35;101231.47;;;5.60;53.61
62548;BME280;48602;45.192;5.722;2023-02-11T11:08:04;101228.94;;;5.66;53.32
62548;BME280;48602;45.192;5.722;2023-02-11T11:10:36;101222.06;;;5.74;53.37
62548;BME280;48602;45.192;5.722;2023-02-11T11:18:33;101213.63;;;5.95;52.42
62548;BME280;48602;45.192;5.722;2023-02-11T11:21:01;101203.25;;;6.01;52.72
62548;BME280;48602;45.192;5.722;2023-02-11T11:23:29;101194.56;;;6.07;52.19
62548;BME280;48602;45.192;5.722;2023-02-11T11:26:11;101185.06;;;6.15;52.39
62548;BME280;48602;45.192;5.722;2023-02-11T11:28:51;101190.41;;;6.24;52.10
62548;BME280;48602;45.192;5.722;2023-02-11T11:31:25;101177.41;;;6.32;52.37
62548;BME280;48602;45.192;5.722;2023-02-11T11:33:53;101175.72;;;6.40;52.16
62548;BME280;48602;45.192;5.722;2023-02-11T11:36:42;101177.53;;;6.47;52.44
62548;BME280;48602;45.192;5.722;2023-02-11T11:39:20;101175.00;;;6.53;51.31
62548;BME280;48602;45.192;5.722;2023-02-11T11:42:01;101169.78;;;6.59;51.58
62548;BME280;48602;45.192;5.722;2023-02-11T11:44:36;101166.34;;;6.63;51.22
62548;BME280;48602;45.192;5.722;2023-02-11T11:47:19;101162.91;;;6.69;51.10
62548;BME280;48602;45.192;5.722;2023-02-11T11:49:54;101152.44;;;6.73;50.66
62548;BME280;48602;45.192;5.722;2023-02-11T11:52:36;101140.28;;;6.81;50.94
62548;BME280;48602;45.192;5.722;2023-02-11T11:57:41;101137.69;;;6.90;50.17
62548;BME280;48602;45.192;5.722;2023-02-11T12:00:49;101131.66;;;6.99;50.55
62548;BME280;48602;45.192;5.722;2023-02-11T12:06:31;101123.03;;;7.17;49.87
62548;BME280;48602;45.192;5.722;2023-02-11T12:09:27;101117.81;;;7.26;49.58
62548;BME280;48602;45.192;5.722;2023-02-11T12:14:55;101108.28;;;7.43;48.53
62548;BME280;48602;45.192;5.722;2023-02-11T12:26:21;101092.63;;;7.64;47.97
62548;BME280;48602;45.192;5.722;2023-02-11T12:39:39;101079.59;;;7.96;47.15
62548;BME280;48602;45.192;5.722;2023-02-11T12:48:21;101067.34;;;8.09;47.04
62548;BME280;48602;45.192;5.722;2023-02-11T12:58:58;101039.31;;;8.25;45.77
62548;BME280;48602;45.192;5.722;2023-02-11T13:01:39;101031.44;;;8.29;46.09
62548;BME280;48602;45.192;5.722;2023-02-11T13:04:25;101040.25;;;8.34;46.12
62548;BME280;48602;45.192;5.722;2023-02-11T13:06:59;101036.75;;;8.37;46.03
62548;BME280;48602;45.192;5.722;2023-02-11T13:09:35;101025.34;;;8.43;46.70
62548;BME280;48602;45.192;5.722;2023-02-11T13:12:03;101020.97;;;8.45;46.40
62548;BME280;48602;45.192;5.722;2023-02-11T13:14:51;101021.84;;;8.48;46.45
62548;BME280;48602;45.192;5.722;2023-02-11T13:17:29;101011.34;;;8.51;46.57
62548;BME280;48602;45.192;5.722;2023-02-11T13:20:01;101013.97;;;8.53;46.84
62548;BME280;48602;45.192;5.722;2023-02-11T13:22:47;101006.94;;;8.50;47.00
62548;BME280;48602;45.192;5.722;2023-02-11T13:27:58;100991.16;;;8.56;46.23
62548;BME280;48602;45.192;5.722;2023-02-11T13:30:33;100990.28;;;8.59;46.58
62548;BME280;48602;45.192;5.722;2023-02-11T13:35:39;100985.88;;;8.68;46.10
62548;BME280;48602;45.192;5.722;2023-02-11T13:40:41;100977.94;;;8.76;46.20
62548;BME280;48602;45.192;5.722;2023-02-11T13:43:19;100976.19;;;8.83;46.29
62548;BME280;48602;45.192;5.722;2023-02-11T13:45:47;100971.81;;;8.85;46.34
62548;BME280;48602;45.192;5.722;2023-02-11T13:48:26;100969.16;;;8.88;46.17
62548;BME280;48602;45.192;5.722;2023-02-11T13:51:15;100972.63;;;8.94;46.27
62548;BME280;48602;45.192;5.722;2023-02-11T13:53:52;100963.88;;;8.97;46.29
62548;BME280;48602;45.192;5.722;2023-02-11T13:58:58;100965.56;;;9.05;46.22
62548;BME280;48602;45.192;5.722;2023-02-11T14:04:35;100949.75;;;9.18;45.84
62548;BME280;48602;45.192;5.722;2023-02-11T14:07:32;100950.56;;;9.24;45.87
62548;BME280;48602;45.192;5.722;2023-02-11T14:13:26;100942.66;;;9.30;45.79
62548;BME280;48602;45.192;5.722;2023-02-11T14:23:36;100947.78;;;9.52;45.54
62548;BME280;48602;45.192;5.722;2023-02-11T14:31:23;100946.81;;;9.65;45.64
62548;BME280;48602;45.192;5.722;2023-02-11T14:36:52;100937.06;;;9.74;45.50
62548;BME280;48602;45.192;5.722;2023-02-11T14:39:48;100944.97;;;9.77;45.65
62548;BME280;48602;45.192;5.722;2023-02-11T14:42:20;100943.19;;;9.79;45.25
62548;BME280;48602;45.192;5.722;2023-02-11T14:44:52;100937.03;;;9.82;45.54
62548;BME280;48602;45.192;5.722;2023-02-11T14:47:29;100936.16;;;9.82;45.14
62548;BME280;48602;45.192;5.722;2023-02-11T14:49:59;100937.03;;;9.82;45.63
62548;BME280;48602;45.192;5.722;2023-02-11T14:52:28;100937.00;;;9.87;45.74
62548;BME280;48602;45.192;5.722;2023-02-11T14:57:26;100936.94;;;9.91;45.43
62548;BME280;48602;45.192;5.722;2023-02-11T15:00:00;100930.78;;;9.94;45.28
62548;BME280;48602;45.192;5.722;2023-02-11T15:02:36;100927.25;;;9.96;44.92
62548;BME280;48602;45.192;5.722;2023-02-11T15:05:22;100926.34;;;9.99;45.80
62548;BME280;48602;45.192;5.722;2023-02-11T15:08:04;100925.47;;;9.98;45.30
62548;BME280;48602;45.192;5.722;2023-02-11T15:12:59;100916.66;;;10.04;45.00
62548;BME280;48602;45.192;5.722;2023-02-11T15:15:27;100913.97;;;10.05;44.96
62548;BME280;48602;45.192;5.722;2023-02-11T15:17:54;100906.06;;;10.07;45.25
62548;BME280;48602;45.192;5.722;2023-02-11T15:20:27;100911.31;;;10.08;44.93
62548;BME280;48602;45.192;5.722;2023-02-11T15:22:57;100906.91;;;10.10;44.90
62548;BME280;48602;45.192;5.722;2023-02-11T15:25:24;100910.41;;;10.12;44.69
62548;BME280;48602;45.192;5.722;2023-02-11T15:27:54;100911.28;;;10.14;44.78
62548;BME280;48602;45.192;5.722;2023-02-11T15:32:53;100904.22;;;10.15;44.50
62548;BME280;48602;45.192;5.722;2023-02-11T15:35:24;100905.09;;;10.15;44.39
62548;BME280;48602;45.192;5.722;2023-02-11T15:37:53;100898.09;;;10.14;44.30